CheckWX is a tool to help pilots better visualize weather data.  It is not intended as a substitute for an official pre-flight weather briefing.

17:08:39 UTC

4O4 METAR
Mc Curtain County Regional Airport
Idabel, Oklahoma, USA
Current

34 mins ago

K4O4 211635Z AUTO 23006KT 10SM CLR 32/19 A2997 RMK AO2
Observed
Jul-21 @ 16:35 UTC
Wind
  • 230° at 6 KTS
Visibility
10 SM
Flight Rules
VFR
Cloud Levels
  • Clear skies
Temperature
32°C / 90°F
Dewpoint
19°C / 66°F
Heat Index
34°C / 93°F
Humidity
46%
Altimeter
29.97" Hg
Pressure
1014.92 hPa
Previous

54 mins ago

K4O4 211615Z AUTO 26003KT 10SM CLR 31/19 A2998 RMK AO2
Observed
Jul-21 @ 16:15 UTC
Wind
  • 260° at 3 KTS
Visibility
10 SM
Flight Rules
VFR
Cloud Levels
  • Clear skies
Temperature
31°C / 88°F
Dewpoint
19°C / 66°F
Heat Index
33°C / 91°F
Humidity
49%
Altimeter
29.98" Hg
Pressure
1015.22 hPa
Previous

1 hour ago

K4O4 211555Z AUTO 24006KT 10SM CLR 31/20 A2997 RMK AO2
Observed
Jul-21 @ 15:55 UTC
Wind
  • 240° at 6 KTS
Visibility
10 SM
Flight Rules
VFR
Cloud Levels
  • Clear skies
Temperature
31°C / 88°F
Dewpoint
20°C / 68°F
Heat Index
33°C / 92°F
Humidity
52%
Altimeter
29.97" Hg
Pressure
1014.92 hPa